Terminal Aerodrome Forecast
Issued by NWS

Current Version | Previous Version | Graphics & Text | Print | Product List | Glossary On
Versions: 1 2 3 4 5 6 7 8 9 10 11 12 13 14 15 16 17 18 19 20 21 22 23 24 25
840
FTUS41 KRLX 270916 AAA
TAFCKB
TAF AMD
KCKB 270916Z 2709/2806 18003KT P6SM OVC008
     FM271000 VRB03KT 1/2SM FG SCT001 BKN015
     FM271400 VRB03KT P6SM BKN025
     FM271600 VRB03KT P6SM BKN040=

USA.gov is the U.S. government's official web portal to all federal, state and local government web resources and services.